Pumphrey, Texas
Current Conditions -  °F | °C
As of 3:03 AM on Sunday 21 Dec 2014 (Local Time) from KDYS Reporting Station
Broken Clouds Broken Clouds  
Wind Chill: 37°   Ceiling: 1200
Heat Index: 43°   Visibility: 10mi
Dew Point: 37°   Wind: 12mph
Humidity: 81%   Direction: 170°S
Pressure: 30.03"   Gusts: NA
Location:  31.975°N, 99.9034°W
Report Text: KDYS 210903Z AUTO 17010KT 10SM BKN012 BKN024 06/03 A3003 RMK AO2 CIG 012V024 BKN012 V SCT $
Loading
Personal Weather Stations






























Interactive Weather Map New forecast layout! Learn more

10-Day Weather Forecast

Advertisements
Track Severe Weather on mobile